createdAt,value
2018-10-06T00:00:31.994Z,953.91
2018-10-06T00:01:32.012Z,953.93
2018-10-06T00:02:32.002Z,953.92
2018-10-06T00:03:31.994Z,953.97
2018-10-06T00:04:32.015Z,953.93
2018-10-06T00:05:32.004Z,953.94
2018-10-06T00:06:31.994Z,953.94
2018-10-06T00:07:32.015Z,953.92
2018-10-06T00:08:32.003Z,953.92
2018-10-06T00:09:31.993Z,953.96
2018-10-06T00:10:32.013Z,953.93
2018-10-06T00:11:32.003Z,953.92
2018-10-06T00:12:31.993Z,953.88
2018-10-06T00:13:32.015Z,953.91
2018-10-06T00:14:32.003Z,953.89
2018-10-06T00:15:31.993Z,953.9
2018-10-06T00:16:32.015Z,953.89
2018-10-06T00:17:32.003Z,953.87
2018-10-06T00:18:31.994Z,953.87
2018-10-06T00:19:32.014Z,953.82
2018-10-06T00:20:32.012Z,953.82
2018-10-06T00:21:32.022Z,953.77
2018-10-06T00:22:32.015Z,953.78
2018-10-06T00:23:32.007Z,953.77
2018-10-06T00:24:31.996Z,953.8
2018-10-06T00:25:32.018Z,953.82
2018-10-06T00:26:32.007Z,953.8
2018-10-06T00:27:32.000Z,953.83
2018-10-06T00:28:32.017Z,953.82
2018-10-06T00:29:32.011Z,953.81
2018-10-06T00:30:31.996Z,953.79
2018-10-06T00:31:31.987Z,953.81
2018-10-06T00:32:31.977Z,953.78
2018-10-06T00:33:31.967Z,953.83
2018-10-06T00:34:31.957Z,953.82
2018-10-06T00:35:31.948Z,953.78
2018-10-06T00:36:31.937Z,953.79
2018-10-06T00:37:31.927Z,953.8
2018-10-06T00:38:31.918Z,953.8
2018-10-06T00:39:31.908Z,953.8
2018-10-06T00:40:31.903Z,953.75
2018-10-06T00:41:31.886Z,953.76
2018-10-06T00:42:31.877Z,953.74
2018-10-06T00:43:31.866Z,953.74
2018-10-06T00:44:31.862Z,953.74
2018-10-06T00:45:31.846Z,953.73
2018-10-06T00:46:31.838Z,953.74
2018-10-06T00:47:31.826Z,953.74
2018-10-06T00:48:31.816Z,953.73
2018-10-06T00:49:31.819Z,953.75
2018-10-06T00:50:31.797Z,953.77
2018-10-06T00:51:31.786Z,953.79
2018-10-06T00:52:31.777Z,953.8
2018-10-06T00:53:31.767Z,953.77
2018-10-06T00:54:31.756Z,953.86
2018-10-06T00:55:31.748Z,953.81
2018-10-06T00:56:31.736Z,953.81
2018-10-06T00:57:31.727Z,953.76
2018-10-06T00:58:31.717Z,953.78
2018-10-06T00:59:31.706Z,953.81
2018-10-06T01:00:31.696Z,953.74
2018-10-06T01:01:31.690Z,953.79
2018-10-06T01:02:31.678Z,953.72
2018-10-06T01:03:31.667Z,953.74
2018-10-06T01:04:31.656Z,953.72
2018-10-06T01:05:31.647Z,953.72
2018-10-06T01:06:31.638Z,953.67
2018-10-06T01:07:31.627Z,953.68
2018-10-06T01:08:31.616Z,953.62
2018-10-06T01:09:31.607Z,953.63
2018-10-06T01:10:31.596Z,953.64
2018-10-06T01:11:31.588Z,953.57
2018-10-06T01:12:31.580Z,953.57
2018-10-06T01:13:31.567Z,953.59
2018-10-06T01:14:31.560Z,953.57
2018-10-06T01:15:31.547Z,953.59
2018-10-06T01:16:31.537Z,953.61
2018-10-06T01:17:31.527Z,953.58
2018-10-06T01:18:31.520Z,953.57
2018-10-06T01:19:31.506Z,953.53
2018-10-06T01:20:31.498Z,953.55
2018-10-06T01:21:31.485Z,953.49
2018-10-06T01:22:31.476Z,953.52
2018-10-06T01:23:31.466Z,953.5
2018-10-06T01:24:31.455Z,953.44
2018-10-06T01:25:31.445Z,953.45
2018-10-06T01:26:31.435Z,953.45
2018-10-06T01:27:31.427Z,953.38
2018-10-06T01:28:31.417Z,953.38
2018-10-06T01:29:31.404Z,953.36
2018-10-06T01:30:31.395Z,953.39
2018-10-06T01:31:31.384Z,953.35
2018-10-06T01:32:31.375Z,953.34
2018-10-06T01:33:31.365Z,953.37
2018-10-06T01:34:31.355Z,953.37
2018-10-06T01:35:31.344Z,953.39
2018-10-06T01:36:31.333Z,953.37
2018-10-06T01:37:31.324Z,953.39
2018-10-06T01:38:31.315Z,953.36
2018-10-06T01:39:31.306Z,953.4
2018-10-06T01:40:31.293Z,953.38
2018-10-06T01:41:31.284Z,953.43
2018-10-06T01:42:31.272Z,953.37
2018-10-06T01:43:31.262Z,953.41
2018-10-06T01:44:31.251Z,953.4
2018-10-06T01:45:31.241Z,953.43
2018-10-06T01:46:31.233Z,953.39
2018-10-06T01:47:31.221Z,953.46
2018-10-06T01:48:31.218Z,953.46
2018-10-06T01:49:31.203Z,953.42
2018-10-06T01:50:31.191Z,953.41
2018-10-06T01:51:31.186Z,953.41
2018-10-06T01:52:31.174Z,953.44
2018-10-06T01:53:31.162Z,953.39
2018-10-06T01:54:31.151Z,953.37
2018-10-06T01:55:31.142Z,953.38
2018-10-06T01:56:31.130Z,953.33
2018-10-06T01:57:31.120Z,953.34
2018-10-06T01:58:31.109Z,953.34
2018-10-06T01:59:31.100Z,953.27
2018-10-06T02:00:31.090Z,953.31
2018-10-06T02:01:31.078Z,953.25
2018-10-06T02:02:31.069Z,953.22
2018-10-06T02:03:31.062Z,953.22
2018-10-06T02:04:31.047Z,953.27
2018-10-06T02:05:31.037Z,953.25
2018-10-06T02:06:31.027Z,953.22
2018-10-06T02:07:31.017Z,953.14
2018-10-06T02:08:31.006Z,953.21
2018-10-06T02:09:30.997Z,953.18
2018-10-06T02:10:30.985Z,953.18
2018-10-06T02:11:30.977Z,953.25
2018-10-06T02:12:30.966Z,953.28
2018-10-06T02:13:30.955Z,953.22
2018-10-06T02:14:30.945Z,953.23
2018-10-06T02:15:30.935Z,953.3
2018-10-06T02:16:30.925Z,953.26
2018-10-06T02:17:30.914Z,953.36
2018-10-06T02:18:30.905Z,953.25
2018-10-06T02:19:30.894Z,953.25
2018-10-06T02:20:30.884Z,953.24
2018-10-06T02:21:30.873Z,953.23
2018-10-06T02:22:30.864Z,953.19
2018-10-06T02:23:30.853Z,953.27
2018-10-06T02:24:30.843Z,953.23
2018-10-06T02:25:30.832Z,953.2
2018-10-06T02:26:30.823Z,953.27
2018-10-06T02:27:30.812Z,953.2
2018-10-06T02:28:30.804Z,953.23
2018-10-06T02:29:30.792Z,953.24
2018-10-06T02:30:30.782Z,953.3
2018-10-06T02:31:30.772Z,953.28
2018-10-06T02:32:30.764Z,953.29
2018-10-06T02:33:30.750Z,953.26
2018-10-06T02:34:30.740Z,953.23
2018-10-06T02:35:30.731Z,953.2
2018-10-06T02:36:30.724Z,953.23
2018-10-06T02:37:30.713Z,953.19
2018-10-06T02:38:30.705Z,953.23
2018-10-06T02:39:30.689Z,953.21
2018-10-06T02:40:30.679Z,953.18
2018-10-06T02:41:30.670Z,953.17
2018-10-06T02:42:30.659Z,953.23
2018-10-06T02:43:30.648Z,953.18
2018-10-06T02:44:30.638Z,953.13
2018-10-06T02:45:30.627Z,953.18
2018-10-06T02:46:30.621Z,953.19
2018-10-06T02:47:30.610Z,953.24
2018-10-06T02:48:30.598Z,953.18
2018-10-06T02:49:30.586Z,953.2
2018-10-06T02:50:30.575Z,953.18
2018-10-06T02:51:30.566Z,953.21
2018-10-06T02:52:30.557Z,953.2
2018-10-06T02:53:30.545Z,953.2
2018-10-06T02:54:30.536Z,953.15
2018-10-06T02:55:30.525Z,953.14
2018-10-06T02:56:30.515Z,953.14
2018-10-06T02:57:30.502Z,953.19
2018-10-06T02:58:30.493Z,953.17
2018-10-06T02:59:30.484Z,953.13
2018-10-06T03:00:30.474Z,953.17
2018-10-06T03:01:30.461Z,953.18
2018-10-06T03:02:30.452Z,953.19
2018-10-06T03:03:30.441Z,953.15
2018-10-06T03:04:30.430Z,953.14
2018-10-06T03:05:30.422Z,953.17
2018-10-06T03:06:30.410Z,953.15
2018-10-06T03:07:30.406Z,953.18
2018-10-06T03:08:30.389Z,953.17
2018-10-06T03:09:30.380Z,953.15
2018-10-06T03:10:30.368Z,953.17
2018-10-06T03:11:30.357Z,953.19
2018-10-06T03:12:30.347Z,953.13
2018-10-06T03:13:30.339Z,953.13
2018-10-06T03:14:30.328Z,953.12
2018-10-06T03:15:30.316Z,953.16
2018-10-06T03:16:30.306Z,953.13
2018-10-06T03:17:30.297Z,953.13
2018-10-06T03:18:30.290Z,953.09
2018-10-06T03:19:30.273Z,953.1
2018-10-06T03:20:30.268Z,953.06
2018-10-06T03:21:30.254Z,953.09
2018-10-06T03:22:30.244Z,953.1
2018-10-06T03:23:30.233Z,953.13
2018-10-06T03:24:30.227Z,953.11
2018-10-06T03:25:30.213Z,953.2
2018-10-06T03:26:30.203Z,953.07
2018-10-06T03:27:30.192Z,953.12
2018-10-06T03:28:30.183Z,953.14
2018-10-06T03:29:30.171Z,953.14
2018-10-06T03:30:30.161Z,953.09
2018-10-06T03:31:30.151Z,953.12
2018-10-06T03:32:30.142Z,953.09
2018-10-06T03:33:30.137Z,953.1
2018-10-06T03:34:30.121Z,953.09
2018-10-06T03:35:30.110Z,953.1
2018-10-06T03:36:30.099Z,953.11
2018-10-06T03:37:30.093Z,953.05
2018-10-06T03:38:30.084Z,953.07
2018-10-06T03:39:30.069Z,953.09
2018-10-06T03:40:30.057Z,953.08
2018-10-06T03:41:30.049Z,953.09
2018-10-06T03:42:30.037Z,953.05
2018-10-06T03:43:30.026Z,953.06
2018-10-06T03:44:30.017Z,953.03
2018-10-06T03:45:30.006Z,953.05
2018-10-06T03:46:29.996Z,953.09
2018-10-06T03:47:29.988Z,953.1
2018-10-06T03:48:29.974Z,953.04
2018-10-06T03:49:29.966Z,953.04
2018-10-06T03:50:29.955Z,953
2018-10-06T03:51:29.946Z,952.97
2018-10-06T03:52:29.934Z,952.96
2018-10-06T03:53:29.922Z,952.99
2018-10-06T03:54:29.915Z,952.99
2018-10-06T03:55:29.903Z,953.03
2018-10-06T03:56:29.894Z,952.97
2018-10-06T03:57:29.883Z,953.01
2018-10-06T03:58:29.872Z,952.96
2018-10-06T03:59:29.861Z,952.97
2018-10-06T04:00:29.851Z,952.98
2018-10-06T04:01:29.840Z,952.95
2018-10-06T04:02:29.830Z,952.91
2018-10-06T04:03:29.822Z,952.93
2018-10-06T04:04:29.814Z,952.89
2018-10-06T04:05:29.802Z,952.87
2018-10-06T04:06:29.789Z,952.91
2018-10-06T04:07:29.779Z,952.87
2018-10-06T04:08:29.772Z,952.86
2018-10-06T04:09:29.759Z,952.86
2018-10-06T04:10:29.750Z,952.81
2018-10-06T04:11:29.739Z,952.8
2018-10-06T04:12:29.731Z,952.76
2018-10-06T04:13:29.717Z,952.8
2018-10-06T04:14:29.709Z,952.71
2018-10-06T04:15:29.703Z,952.74
2018-10-06T04:16:29.687Z,952.73
2018-10-06T04:17:29.676Z,952.66
2018-10-06T04:18:29.666Z,952.72
2018-10-06T04:19:29.658Z,952.65
2018-10-06T04:20:29.646Z,952.68
2018-10-06T04:21:29.640Z,952.64
2018-10-06T04:22:29.625Z,952.67
2018-10-06T04:23:29.621Z,952.66
2018-10-06T04:24:29.612Z,952.7
2018-10-06T04:25:29.595Z,952.69
2018-10-06T04:26:29.585Z,952.74
2018-10-06T04:27:29.577Z,952.68
2018-10-06T04:28:29.590Z,952.71
2018-10-06T04:29:29.555Z,952.68
2018-10-06T04:30:29.545Z,952.55
2018-10-06T04:31:29.533Z,952.61
2018-10-06T04:32:29.524Z,952.64
2018-10-06T04:33:29.513Z,952.61
2018-10-06T04:34:29.503Z,952.57
2018-10-06T04:35:29.492Z,952.57
2018-10-06T04:36:29.482Z,952.58
2018-10-06T04:37:29.474Z,952.59
2018-10-06T04:38:29.462Z,952.54
2018-10-06T04:39:29.452Z,952.59
2018-10-06T04:40:29.446Z,952.56
2018-10-06T04:41:29.431Z,952.52
2018-10-06T04:42:29.422Z,952.55
2018-10-06T04:43:29.410Z,952.53
2018-10-06T04:44:29.401Z,952.55
2018-10-06T04:45:29.390Z,952.52
2018-10-06T04:46:29.380Z,952.51
2018-10-06T04:47:29.369Z,952.52
2018-10-06T04:48:29.359Z,952.56
2018-10-06T04:49:29.349Z,952.53
2018-10-06T04:50:29.337Z,952.53
2018-10-06T04:51:29.327Z,952.47
2018-10-06T04:52:29.317Z,952.49
2018-10-06T04:53:29.306Z,952.49
2018-10-06T04:54:29.296Z,952.5
2018-10-06T04:55:29.287Z,952.48
2018-10-06T04:56:29.277Z,952.48
2018-10-06T04:57:29.267Z,952.49
2018-10-06T04:58:29.259Z,952.49
2018-10-06T04:59:29.245Z,952.47
2018-10-06T05:00:29.234Z,952.49
2018-10-06T05:01:29.224Z,952.53
2018-10-06T05:02:29.214Z,952.47
2018-10-06T05:03:29.270Z,952.51
2018-10-06T05:04:29.194Z,952.51
2018-10-06T05:05:29.186Z,952.5
2018-10-06T05:06:29.177Z,952.49
2018-10-06T05:07:29.164Z,952.56
2018-10-06T05:08:29.153Z,952.52
2018-10-06T05:09:29.142Z,952.59
2018-10-06T05:10:29.132Z,952.56
2018-10-06T05:11:29.120Z,952.59
2018-10-06T05:12:29.111Z,952.6
2018-10-06T05:13:29.101Z,952.56
2018-10-06T05:14:29.089Z,952.61
2018-10-06T05:15:29.083Z,952.64
2018-10-06T05:16:29.070Z,952.64
2018-10-06T05:17:29.062Z,952.62
2018-10-06T05:18:29.048Z,952.63
2018-10-06T05:19:29.038Z,952.63
2018-10-06T05:20:29.027Z,952.65
2018-10-06T05:21:29.018Z,952.59
2018-10-06T05:22:29.008Z,952.66
2018-10-06T05:23:29.063Z,952.65
2018-10-06T05:24:28.988Z,952.56
2018-10-06T05:25:28.977Z,952.61
2018-10-06T05:26:28.966Z,952.65
2018-10-06T05:27:28.956Z,952.59
2018-10-06T05:28:28.945Z,952.61
2018-10-06T05:29:28.936Z,952.67
2018-10-06T05:30:28.925Z,952.61
2018-10-06T05:31:28.916Z,952.61
2018-10-06T05:32:28.905Z,952.61
2018-10-06T05:33:28.894Z,952.59
2018-10-06T05:34:28.883Z,952.62
2018-10-06T05:35:28.874Z,952.57
2018-10-06T05:36:28.863Z,952.65
2018-10-06T05:37:28.853Z,952.63
2018-10-06T05:38:28.842Z,952.63
2018-10-06T05:39:28.833Z,952.62
2018-10-06T05:40:28.823Z,952.6
2018-10-06T05:41:28.811Z,952.6
2018-10-06T05:42:28.802Z,952.61
2018-10-06T05:43:28.793Z,952.59
2018-10-06T05:44:28.782Z,952.6
2018-10-06T05:45:28.771Z,952.55
2018-10-06T05:46:28.851Z,952.53
2018-10-06T05:47:28.750Z,952.56
2018-10-06T05:48:28.740Z,952.58
2018-10-06T05:49:28.731Z,952.62
2018-10-06T05:50:28.718Z,952.61
2018-10-06T05:51:28.709Z,952.63
2018-10-06T05:52:28.699Z,952.6
2018-10-06T05:53:28.688Z,952.65
2018-10-06T05:54:28.680Z,952.62
2018-10-06T05:55:28.669Z,952.56
2018-10-06T05:56:28.659Z,952.6
2018-10-06T05:57:28.648Z,952.6
2018-10-06T05:58:28.640Z,952.57
2018-10-06T05:59:28.628Z,952.59
2018-10-06T06:00:28.617Z,952.6
2018-10-06T06:01:28.617Z,952.59
2018-10-06T06:02:28.600Z,952.6
2018-10-06T06:03:28.592Z,952.58
2018-10-06T06:04:28.578Z,952.56
2018-10-06T06:05:28.569Z,952.61
2018-10-06T06:06:28.557Z,952.59
2018-10-06T06:07:28.549Z,952.63
2018-10-06T06:08:28.538Z,952.6
2018-10-06T06:09:28.528Z,952.66
2018-10-06T06:10:28.519Z,952.67
2018-10-06T06:11:28.507Z,952.64
2018-10-06T06:12:28.499Z,952.59
2018-10-06T06:13:28.547Z,952.66
2018-10-06T06:14:28.479Z,952.61
2018-10-06T06:15:28.526Z,952.61
2018-10-06T06:16:28.459Z,952.6
2018-10-06T06:17:28.448Z,952.6
2018-10-06T06:18:28.443Z,952.66
2018-10-06T06:19:28.430Z,952.61
2018-10-06T06:20:28.420Z,952.63
2018-10-06T06:21:28.411Z,952.6
2018-10-06T06:22:28.400Z,952.59
2018-10-06T06:23:28.391Z,952.59
2018-10-06T06:24:28.383Z,952.54
2018-10-06T06:25:28.372Z,952.55
2018-10-06T06:26:28.365Z,952.58
2018-10-06T06:27:28.351Z,952.63
2018-10-06T06:28:28.348Z,952.61
2018-10-06T06:29:28.333Z,952.62
2018-10-06T06:30:28.324Z,952.59
2018-10-06T06:31:28.445Z,952.6
2018-10-06T06:32:28.304Z,952.62
2018-10-06T06:33:28.296Z,952.55
2018-10-06T06:34:28.289Z,952.52
2018-10-06T06:35:28.277Z,952.61
2018-10-06T06:36:28.269Z,952.63
2018-10-06T06:37:28.260Z,952.65
2018-10-06T06:38:28.302Z,952.6
2018-10-06T06:39:28.240Z,952.62
2018-10-06T06:40:28.233Z,952.61
2018-10-06T06:41:28.223Z,952.66
2018-10-06T06:42:28.214Z,952.64
2018-10-06T06:43:28.209Z,952.62
2018-10-06T06:44:28.398Z,952.66
2018-10-06T06:45:28.187Z,952.69
2018-10-06T06:46:28.178Z,952.65
2018-10-06T06:47:28.170Z,952.65
2018-10-06T06:48:28.160Z,952.61
2018-10-06T06:49:28.154Z,952.65
2018-10-06T06:50:28.143Z,952.65
2018-10-06T06:51:28.135Z,952.66
2018-10-06T06:52:28.126Z,952.68
2018-10-06T06:53:28.118Z,952.71
2018-10-06T06:54:28.110Z,952.63
2018-10-06T06:55:28.100Z,952.73
2018-10-06T06:56:28.092Z,952.67
2018-10-06T06:57:28.083Z,952.71
2018-10-06T06:58:28.074Z,952.73
2018-10-06T06:59:28.065Z,952.72
2018-10-06T07:00:28.058Z,952.73
2018-10-06T07:01:28.050Z,952.69
2018-10-06T07:02:28.042Z,952.73
2018-10-06T07:03:28.032Z,952.75
2018-10-06T07:04:28.024Z,952.8
2018-10-06T07:05:28.018Z,952.81
2018-10-06T07:06:28.007Z,952.78
2018-10-06T07:07:28.000Z,952.78
2018-10-06T07:08:27.992Z,952.76
2018-10-06T07:09:27.983Z,952.79
2018-10-06T07:10:27.976Z,952.8
2018-10-06T07:11:27.967Z,952.79
2018-10-06T07:12:28.035Z,952.84
2018-10-06T07:13:27.950Z,952.82
2018-10-06T07:14:27.943Z,952.85
2018-10-06T07:15:27.935Z,952.85
2018-10-06T07:16:27.925Z,952.86
2018-10-06T07:17:27.918Z,952.82
2018-10-06T07:18:27.923Z,952.84
2018-10-06T07:19:27.902Z,952.86
2018-10-06T07:20:27.896Z,952.87
2018-10-06T07:21:27.887Z,952.83
2018-10-06T07:22:27.880Z,952.85
2018-10-06T07:23:27.871Z,952.81
2018-10-06T07:24:27.910Z,952.79
2018-10-06T07:25:27.860Z,952.77
2018-10-06T07:26:27.848Z,952.77
2018-10-06T07:27:27.840Z,952.75
2018-10-06T07:28:27.882Z,952.83
2018-10-06T07:29:27.825Z,952.81
2018-10-06T07:30:27.818Z,952.75
2018-10-06T07:31:27.816Z,952.78
2018-10-06T07:32:27.804Z,952.74
2018-10-06T07:33:27.795Z,952.71
2018-10-06T07:34:27.788Z,952.74
2018-10-06T07:35:27.783Z,952.72
2018-10-06T07:36:27.777Z,952.72
2018-10-06T07:37:27.769Z,952.7
2018-10-06T07:38:27.759Z,952.74
2018-10-06T07:39:27.750Z,952.78
2018-10-06T07:40:27.744Z,952.74
2018-10-06T07:41:27.736Z,952.75
2018-10-06T07:42:27.728Z,952.77
2018-10-06T07:43:27.721Z,952.71
2018-10-06T07:44:27.715Z,952.73
2018-10-06T07:45:27.707Z,952.76
2018-10-06T07:46:27.700Z,952.73
2018-10-06T07:47:27.693Z,952.71
2018-10-06T07:48:27.685Z,952.79
2018-10-06T07:49:27.677Z,952.73
2018-10-06T07:50:27.671Z,952.7
2018-10-06T07:51:27.665Z,952.62
2018-10-06T07:52:27.657Z,952.67
2018-10-06T07:53:27.648Z,952.67
2018-10-06T07:54:27.643Z,952.59
2018-10-06T07:55:27.636Z,952.71
2018-10-06T07:56:27.626Z,952.7
2018-10-06T07:57:27.626Z,952.68
2018-10-06T07:58:27.612Z,952.68
2018-10-06T07:59:27.759Z,952.63
2018-10-06T08:00:27.597Z,952.66
2018-10-06T08:01:27.591Z,952.63
2018-10-06T08:02:27.583Z,952.67
2018-10-06T08:03:27.579Z,952.56
2018-10-06T08:04:27.569Z,952.64
2018-10-06T08:05:27.563Z,952.62
2018-10-06T08:06:27.569Z,952.63
2018-10-06T08:07:27.549Z,952.64
2018-10-06T08:08:27.541Z,952.66
2018-10-06T08:09:27.533Z,952.69
2018-10-06T08:10:27.527Z,952.62
2018-10-06T08:11:27.522Z,952.63
2018-10-06T08:12:27.513Z,952.67
2018-10-06T08:13:27.507Z,952.6
2018-10-06T08:14:27.499Z,952.68
2018-10-06T08:15:27.495Z,952.69
2018-10-06T08:16:27.487Z,952.67
2018-10-06T08:17:27.479Z,952.62
2018-10-06T08:18:27.472Z,952.61
2018-10-06T08:19:27.468Z,952.63
2018-10-06T08:20:27.457Z,952.59
2018-10-06T08:21:27.453Z,952.62
2018-10-06T08:22:27.443Z,952.58
2018-10-06T08:23:27.437Z,952.6
2018-10-06T08:24:27.430Z,952.55
2018-10-06T08:25:27.422Z,952.5
2018-10-06T08:26:27.415Z,952.63
2018-10-06T08:27:27.409Z,952.57
2018-10-06T08:28:27.404Z,952.57
2018-10-06T08:29:27.394Z,952.53
2018-10-06T08:30:27.387Z,952.56
2018-10-06T08:31:27.385Z,952.46
2018-10-06T08:32:27.373Z,952.56
2018-10-06T08:33:27.368Z,952.53
2018-10-06T08:34:27.360Z,952.53
2018-10-06T08:35:27.361Z,952.55
2018-10-06T08:36:27.346Z,952.48
2018-10-06T08:37:27.341Z,952.5
2018-10-06T08:38:27.332Z,952.52
2018-10-06T08:39:27.328Z,952.46
2018-10-06T08:40:27.319Z,952.51
2018-10-06T08:41:27.314Z,952.47
2018-10-06T08:42:27.307Z,952.49
2018-10-06T08:43:27.299Z,952.49
2018-10-06T08:44:27.293Z,952.48
2018-10-06T08:45:27.286Z,952.44
2018-10-06T08:46:27.281Z,952.45
2018-10-06T08:47:27.273Z,952.43
2018-10-06T08:48:27.268Z,952.4
2018-10-06T08:49:27.263Z,952.46
2018-10-06T08:50:27.255Z,952.44
2018-10-06T08:51:27.248Z,952.41
2018-10-06T08:52:27.243Z,952.45
2018-10-06T08:53:27.235Z,952.45
2018-10-06T08:54:27.230Z,952.46
2018-10-06T08:55:27.224Z,952.48
2018-10-06T08:56:27.291Z,952.43
2018-10-06T08:57:27.216Z,952.45
2018-10-06T08:58:27.207Z,952.41
2018-10-06T08:59:27.199Z,952.39
2018-10-06T09:00:27.192Z,952.41
2018-10-06T09:01:27.188Z,952.44
2018-10-06T09:02:27.181Z,952.4
2018-10-06T09:03:27.177Z,952.38
2018-10-06T09:04:27.268Z,952.39
2018-10-06T09:05:27.164Z,952.37
2018-10-06T09:06:27.158Z,952.37
2018-10-06T09:07:27.152Z,952.37
2018-10-06T09:08:27.147Z,952.37
2018-10-06T09:09:27.142Z,952.33
2018-10-06T09:10:27.135Z,952.33
2018-10-06T09:11:27.129Z,952.32
2018-10-06T09:12:27.127Z,952.33
2018-10-06T09:13:27.117Z,952.3
2018-10-06T09:14:27.114Z,952.38
2018-10-06T09:15:27.108Z,952.36
2018-10-06T09:16:27.101Z,952.36
2018-10-06T09:17:27.096Z,952.32
2018-10-06T09:18:27.092Z,952.32
2018-10-06T09:19:27.086Z,952.33
2018-10-06T09:20:27.081Z,952.33
2018-10-06T09:21:27.074Z,952.31
2018-10-06T09:22:27.071Z,952.38
2018-10-06T09:23:27.066Z,952.32
2018-10-06T09:24:27.061Z,952.33
2018-10-06T09:25:27.056Z,952.26
2018-10-06T09:26:27.052Z,952.27
2018-10-06T09:27:27.046Z,952.24
2018-10-06T09:28:27.057Z,952.26
2018-10-06T09:29:27.048Z,952.19
2018-10-06T09:30:27.032Z,952.22
2018-10-06T09:31:27.027Z,952.17
2018-10-06T09:32:27.022Z,952.24
2018-10-06T09:33:27.018Z,952.18
2018-10-06T09:34:27.012Z,952.2
2018-10-06T09:35:27.009Z,952.13
2018-10-06T09:36:27.003Z,952.16
2018-10-06T09:37:27.002Z,952.13
2018-10-06T09:38:26.999Z,952.14
2018-10-06T09:39:26.992Z,952.16
2018-10-06T09:40:26.989Z,952.11
2018-10-06T09:41:26.987Z,952.13
2018-10-06T09:42:27.069Z,952.1
2018-10-06T09:43:26.975Z,952.05
2018-10-06T09:44:26.972Z,952
2018-10-06T09:45:26.969Z,951.96
2018-10-06T09:46:26.965Z,951.99
2018-10-06T09:47:26.962Z,951.99
2018-10-06T09:48:26.958Z,951.99
2018-10-06T09:49:26.954Z,951.89
2018-10-06T09:50:26.951Z,951.89
2018-10-06T09:51:26.950Z,951.93
2018-10-06T09:52:26.946Z,951.89
2018-10-06T09:53:26.942Z,951.85
2018-10-06T09:54:26.939Z,951.86
2018-10-06T09:55:26.935Z,951.83
2018-10-06T09:56:26.929Z,951.83
2018-10-06T09:57:26.926Z,951.8
2018-10-06T09:58:26.925Z,951.74
2018-10-06T09:59:26.983Z,951.73
2018-10-06T10:00:26.917Z,951.69
2018-10-06T10:01:26.914Z,951.73
2018-10-06T10:02:26.912Z,951.71
2018-10-06T10:03:26.908Z,951.72
2018-10-06T10:04:26.905Z,951.7
2018-10-06T10:05:26.982Z,951.73
2018-10-06T10:06:26.901Z,951.66
2018-10-06T10:07:26.897Z,951.64
2018-10-06T10:08:26.895Z,951.65
2018-10-06T10:09:26.980Z,951.63
2018-10-06T10:10:26.891Z,951.65
2018-10-06T10:11:26.887Z,951.62
2018-10-06T10:12:26.958Z,951.62
2018-10-06T10:13:26.884Z,951.62
2018-10-06T10:14:26.882Z,951.58
2018-10-06T10:15:26.975Z,951.62
2018-10-06T10:16:26.878Z,951.59
2018-10-06T10:17:26.983Z,951.61
2018-10-06T10:18:27.079Z,951.58
2018-10-06T10:19:26.870Z,951.57
2018-10-06T10:20:26.868Z,951.59
2018-10-06T10:21:26.864Z,951.55
2018-10-06T10:22:26.980Z,951.62
2018-10-06T10:23:26.969Z,951.57
2018-10-06T10:24:26.858Z,951.62
2018-10-06T10:25:26.858Z,951.58
2018-10-06T10:26:26.853Z,951.58
2018-10-06T10:27:26.851Z,951.59
2018-10-06T10:28:26.937Z,951.54
2018-10-06T10:29:26.848Z,951.56
2018-10-06T10:30:26.847Z,951.57
2018-10-06T10:31:26.843Z,951.52
2018-10-06T10:32:26.843Z,951.5
2018-10-06T10:33:26.843Z,951.48
2018-10-06T10:34:26.859Z,951.48
2018-10-06T10:35:26.837Z,951.48
2018-10-06T10:36:26.834Z,951.43
2018-10-06T10:37:26.881Z,951.46
2018-10-06T10:38:26.832Z,951.47
2018-10-06T10:39:27.033Z,951.48
2018-10-06T10:40:26.825Z,951.43
2018-10-06T10:41:26.823Z,951.46
2018-10-06T10:42:26.820Z,951.42
2018-10-06T10:43:26.818Z,951.41
2018-10-06T10:44:26.875Z,951.45
2018-10-06T10:45:26.815Z,951.43
2018-10-06T10:46:26.813Z,951.44
2018-10-06T10:47:26.810Z,951.46
2018-10-06T10:48:26.956Z,951.43
2018-10-06T10:49:26.813Z,951.44
2018-10-06T10:50:26.853Z,951.47
2018-10-06T10:51:26.800Z,951.44
2018-10-06T10:52:26.799Z,951.4
2018-10-06T10:53:26.796Z,951.45
2018-10-06T10:54:26.832Z,951.45
2018-10-06T10:55:26.815Z,951.45
2018-10-06T10:56:26.793Z,951.49
2018-10-06T10:57:26.790Z,951.47
2018-10-06T10:58:26.790Z,951.43
2018-10-06T10:59:26.833Z,951.41
2018-10-06T11:00:26.860Z,951.42
2018-10-06T11:01:26.783Z,951.4
2018-10-06T11:02:26.791Z,951.4
2018-10-06T11:03:26.780Z,951.34
2018-10-06T11:04:26.779Z,951.34
2018-10-06T11:05:26.778Z,951.36
2018-10-06T11:06:26.776Z,951.35
2018-10-06T11:07:26.775Z,951.33
2018-10-06T11:08:26.774Z,951.31
2018-10-06T11:09:26.771Z,951.32
2018-10-06T11:10:26.772Z,951.32
2018-10-06T11:11:26.853Z,951.33
2018-10-06T11:12:26.769Z,951.31
2018-10-06T11:13:26.769Z,951.26
2018-10-06T11:14:26.766Z,951.28
2018-10-06T11:15:26.763Z,951.29
2018-10-06T11:16:26.762Z,951.26
2018-10-06T11:17:26.762Z,951.18
2018-10-06T11:18:26.758Z,951.2
2018-10-06T11:19:26.758Z,951.17
2018-10-06T11:20:26.757Z,951.2
2018-10-06T11:21:26.756Z,951.19
2018-10-06T11:22:26.757Z,951.17
2018-10-06T11:23:26.756Z,951.15
2018-10-06T11:24:26.752Z,951.14
2018-10-06T11:25:26.753Z,951.1
2018-10-06T11:26:26.755Z,951.15
2018-10-06T11:27:26.751Z,951.13
2018-10-06T11:28:26.750Z,951.13
2018-10-06T11:29:26.748Z,951.09
2018-10-06T11:30:26.748Z,951.08
2018-10-06T11:31:26.747Z,951.07
2018-10-06T11:32:26.745Z,951.06
2018-10-06T11:33:26.747Z,951.05
2018-10-06T11:34:26.744Z,951.07
2018-10-06T11:35:26.743Z,951.04
2018-10-06T11:36:26.742Z,951.07
2018-10-06T11:37:26.879Z,951.02
2018-10-06T11:38:26.741Z,950.98
2018-10-06T11:39:26.751Z,951.03
2018-10-06T11:40:26.739Z,950.98
2018-10-06T11:41:26.740Z,950.99
2018-10-06T11:42:26.740Z,950.94
2018-10-06T11:43:26.736Z,950.93
2018-10-06T11:44:26.742Z,950.92
2018-10-06T11:45:26.739Z,950.91
2018-10-06T11:46:26.733Z,950.94
2018-10-06T11:47:26.731Z,950.92
2018-10-06T11:48:26.732Z,950.86
2018-10-06T11:49:26.732Z,950.89
2018-10-06T11:50:26.840Z,950.89
2018-10-06T11:51:26.729Z,950.93
2018-10-06T11:52:26.729Z,950.88
2018-10-06T11:53:26.728Z,950.85
2018-10-06T11:54:26.727Z,950.89
2018-10-06T11:55:26.731Z,950.81
2018-10-06T11:56:26.726Z,950.8
2018-10-06T11:57:26.725Z,950.75
2018-10-06T11:58:26.727Z,950.77
2018-10-06T11:59:26.727Z,950.74
2018-10-06T12:00:26.921Z,950.71
2018-10-06T12:01:26.725Z,950.76
2018-10-06T12:02:26.726Z,950.73
2018-10-06T12:03:26.729Z,950.71
2018-10-06T12:04:26.728Z,950.69
2018-10-06T12:05:26.725Z,950.68
2018-10-06T12:06:26.726Z,950.68
2018-10-06T12:07:26.727Z,950.63
2018-10-06T12:08:26.726Z,950.64
2018-10-06T12:09:26.730Z,950.64
2018-10-06T12:10:26.728Z,950.61
2018-10-06T12:11:26.734Z,950.63
2018-10-06T12:12:26.728Z,950.68
2018-10-06T12:13:26.732Z,950.61
2018-10-06T12:14:26.730Z,950.6
2018-10-06T12:15:26.728Z,950.66
2018-10-06T12:16:26.729Z,950.61
2018-10-06T12:17:26.737Z,950.6
2018-10-06T12:18:26.736Z,950.62
2018-10-06T12:19:26.731Z,950.55
2018-10-06T12:20:26.744Z,950.61
2018-10-06T12:21:26.741Z,950.54
2018-10-06T12:22:26.732Z,950.52
2018-10-06T12:23:26.732Z,950.56
2018-10-06T12:24:26.738Z,950.52
2018-10-06T12:25:26.733Z,950.5
2018-10-06T12:26:26.733Z,950.45
2018-10-06T12:27:26.734Z,950.49
2018-10-06T12:28:26.732Z,950.48
2018-10-06T12:29:26.734Z,950.41
2018-10-06T12:30:26.733Z,950.45